createdAt,value
2023-05-23T00:02:20.845Z,22.81
2023-05-23T00:07:22.607Z,22.87
2023-05-23T00:12:24.348Z,22.69
2023-05-23T00:17:27.579Z,22.65
2023-05-23T00:22:29.287Z,22.61
2023-05-23T00:27:30.998Z,22.66
2023-05-23T00:32:35.523Z,22.33
2023-05-23T00:37:38.110Z,22.25
2023-05-23T00:42:39.867Z,22.02
2023-05-23T00:47:42.973Z,21.94
2023-05-23T00:52:45.743Z,21.87
2023-05-23T00:57:47.609Z,21.81
2023-05-23T01:02:53.995Z,21.73
2023-05-23T01:07:56.031Z,21.62
2023-05-23T01:13:06.596Z,21.56
2023-05-23T01:18:10.528Z,21.74
2023-05-23T01:24:00.229Z,21.60
2023-05-23T01:29:10.190Z,21.78
2023-05-23T01:34:12.646Z,21.75
2023-05-23T01:39:14.412Z,21.77
2023-05-23T01:44:18.625Z,21.77
2023-05-23T01:49:22.735Z,21.72
2023-05-23T01:54:24.445Z,21.68
2023-05-23T01:59:27.526Z,21.69
2023-05-23T02:04:31.790Z,21.62
2023-05-23T02:09:33.947Z,21.57
2023-05-23T02:14:37.519Z,21.65
2023-05-23T02:19:39.381Z,21.54
2023-05-23T02:24:41.092Z,21.50
2023-05-23T02:29:44.188Z,21.46
2023-05-23T02:34:46.820Z,21.56
2023-05-23T02:39:48.596Z,21.41
2023-05-23T02:44:51.704Z,21.49
2023-05-23T02:49:53.860Z,21.41
2023-05-23T02:54:55.726Z,21.44
2023-05-23T02:59:58.914Z,21.32
2023-05-23T03:05:00.758Z,21.14
2023-05-23T03:10:02.610Z,20.95
2023-05-23T03:15:08.001Z,20.74
2023-05-23T03:20:12.377Z,20.27
2023-05-23T03:25:15.379Z,20.02
2023-05-23T03:30:19.119Z,19.96
2023-05-23T03:35:21.198Z,20.10
2023-05-23T03:40:23.071Z,20.01
2023-05-23T03:45:26.722Z,19.73
2023-05-23T03:50:28.773Z,19.78
2023-05-23T03:55:32.623Z,19.46
2023-05-23T04:00:36.043Z,19.48
2023-05-23T04:05:40.565Z,19.55
2023-05-23T04:10:43.832Z,19.52
2023-05-23T04:15:48.207Z,19.53
2023-05-23T04:20:50.237Z,19.70
2023-05-23T04:25:52.579Z,19.94
2023-05-23T04:31:03.221Z,19.93
2023-05-23T04:36:09.350Z,19.87
2023-05-23T04:41:16.221Z,20.06
2023-05-23T04:46:41.882Z,20.21
2023-05-23T04:51:51.161Z,20.19
2023-05-23T04:56:56.740Z,20.24
2023-05-23T05:02:01.865Z,20.09
2023-05-23T05:07:04.638Z,20.16
2023-05-23T05:12:06.849Z,20.35
2023-05-23T05:17:10.249Z,20.38
2023-05-23T05:22:26.631Z,20.48
2023-05-23T05:27:28.736Z,20.73
2023-05-23T05:32:33.712Z,20.84
2023-05-23T05:37:36.616Z,20.89
2023-05-23T05:42:38.601Z,20.97
2023-05-23T05:47:41.872Z,21.04
2023-05-23T05:52:43.801Z,20.91
2023-05-23T05:57:46.873Z,20.98
2023-05-23T06:02:51.955Z,20.99
2023-05-23T06:08:07.367Z,20.95
2023-05-23T06:13:09.106Z,20.83
2023-05-23T06:18:13.575Z,20.64
2023-05-23T06:23:15.477Z,20.67
2023-05-23T06:28:17.265Z,20.75
2023-05-23T06:33:22.084Z,20.84
2023-05-23T06:38:26.755Z,20.55
2023-05-23T06:43:28.427Z,20.45
2023-05-23T06:48:45.782Z,20.33
2023-05-23T06:53:47.484Z,20.34
2023-05-23T06:58:49.646Z,20.31
2023-05-23T07:03:53.055Z,20.32
2023-05-23T07:08:54.883Z,20.12
2023-05-23T07:13:58.786Z,20.22
2023-05-23T07:19:13.213Z,20.42
2023-05-23T07:24:23.897Z,20.38
2023-05-23T07:29:28.798Z,20.42
2023-05-23T07:34:32.188Z,20.33
2023-05-23T07:39:36.274Z,20.34
2023-05-23T07:44:39.107Z,20.29
2023-05-23T07:49:42.634Z,20.25
2023-05-23T07:54:44.416Z,20.44
2023-05-23T07:59:47.428Z,20.45
2023-05-23T08:04:51.004Z,20.53
2023-05-23T08:09:53.437Z,20.41
2023-05-23T08:15:14.846Z,20.42
2023-05-23T08:20:22.496Z,20.26
2023-05-23T08:25:25.191Z,19.90
2023-05-23T08:30:27.485Z,19.75
2023-05-23T08:35:34.995Z,19.76
2023-05-23T08:40:37.384Z,19.58
2023-05-23T08:45:46.080Z,19.51
2023-05-23T08:50:51.058Z,19.46
2023-05-23T08:55:56.442Z,19.49
2023-05-23T09:01:01.963Z,19.52
2023-05-23T09:06:06.747Z,19.53
2023-05-23T09:11:12.940Z,19.48
2023-05-23T09:16:16.359Z,19.57
2023-05-23T09:21:24.498Z,19.30
2023-05-23T09:26:33.576Z,19.39
2023-05-23T09:31:36.469Z,19.26
2023-05-23T09:36:40.985Z,19.37
2023-05-23T09:41:48.541Z,19.16
2023-05-23T09:46:52.717Z,19.14
2023-05-23T09:52:00.179Z,19.02
2023-05-23T09:57:02.282Z,18.88
2023-05-23T10:02:04.290Z,18.74
2023-05-23T10:07:14.903Z,18.66
2023-05-23T10:12:44.754Z,18.45
2023-05-23T10:18:03.986Z,18.43
2023-05-23T10:23:07.075Z,18.08
2023-05-23T10:28:08.878Z,18.26
2023-05-23T10:33:11.630Z,18.18
2023-05-23T10:38:21.781Z,18.29
2023-05-23T10:43:26.588Z,18.20
2023-05-23T10:48:37.495Z,18.03
2023-05-23T10:53:41.729Z,17.83
2023-05-23T10:58:43.451Z,17.91
2023-05-23T11:03:54.727Z,17.81
2023-05-23T11:09:07.894Z,17.71
2023-05-23T11:14:09.971Z,17.77
2023-05-23T11:19:27.724Z,17.99
2023-05-23T11:24:50.947Z,17.64
2023-05-23T11:29:57.930Z,17.93
2023-05-23T11:35:00.436Z,17.97
2023-05-23T11:40:27.988Z,17.93
2023-05-23T11:45:30.312Z,17.68
2023-05-23T11:50:32.043Z,17.52
2023-05-23T11:55:35.066Z,17.24
2023-05-23T12:00:43.472Z,17.19
2023-05-23T12:05:45.577Z,17.23
2023-05-23T12:10:52.362Z,17.18
2023-05-23T12:15:54.961Z,17.32
2023-05-23T12:20:59.828Z,17.25
2023-05-23T12:26:04.583Z,17.04
2023-05-23T12:31:10.818Z,16.96
2023-05-23T12:36:12.682Z,16.95
2023-05-23T12:41:19.554Z,17.02
2023-05-23T12:46:21.920Z,17.30
2023-05-23T12:51:23.666Z,17.50
2023-05-23T12:56:26.719Z,17.69
2023-05-23T13:01:28.482Z,17.96
2023-05-23T13:06:30.268Z,18.24
2023-05-23T13:11:33.293Z,18.99
2023-05-23T13:16:36.250Z,19.39
2023-05-23T13:21:37.999Z,19.08
2023-05-23T13:26:41.009Z,19.22
2023-05-23T13:31:42.746Z,19.12
2023-05-23T13:36:44.485Z,18.97
2023-05-23T13:41:47.511Z,19.18
2023-05-23T13:46:49.305Z,19.12
2023-05-23T13:51:51.102Z,19.48
2023-05-23T13:56:54.176Z,19.55
2023-05-23T14:01:56.050Z,19.17
2023-05-23T14:06:57.848Z,19.03
2023-05-23T14:12:01.351Z,19.06
2023-05-23T14:17:03.308Z,19.50
2023-05-23T14:22:05.617Z,19.54
2023-05-23T14:27:10.834Z,19.85
2023-05-23T14:32:13.282Z,19.86
2023-05-23T14:37:15.147Z,20.10
2023-05-23T14:42:18.175Z,20.01
2023-05-23T14:47:19.862Z,19.85
2023-05-23T14:52:21.656Z,19.97
2023-05-23T14:57:24.836Z,20.17
2023-05-23T15:02:26.834Z,19.97
2023-05-23T15:07:28.715Z,20.28
2023-05-23T15:12:31.843Z,20.15
2023-05-23T15:17:33.673Z,19.98
2023-05-23T15:22:39.696Z,19.97
2023-05-23T15:27:44.857Z,19.60
2023-05-23T15:32:47.613Z,19.55
2023-05-23T15:37:49.410Z,19.53
2023-05-23T15:42:52.456Z,18.85
2023-05-23T15:47:54.232Z,19.15
2023-05-23T15:52:56.029Z,19.39
2023-05-23T15:57:59.244Z,19.35
2023-05-23T16:03:01.033Z,19.44
2023-05-23T16:08:02.792Z,19.48
2023-05-23T16:13:05.884Z,19.54
2023-05-23T16:18:07.576Z,19.17
2023-05-23T16:23:09.292Z,19.52
2023-05-23T16:28:12.334Z,19.48
2023-05-23T16:33:14.109Z,18.77
2023-05-23T16:38:15.875Z,18.41
2023-05-23T16:43:18.990Z,18.29
2023-05-23T16:48:21.500Z,18.24
2023-05-23T16:53:23.333Z,18.32
2023-05-23T16:58:26.345Z,18.52
2023-05-23T17:03:29.272Z,18.57
2023-05-23T17:08:31.070Z,18.72
2023-05-23T17:13:34.705Z,18.94
2023-05-23T17:18:36.559Z,18.38
2023-05-23T17:23:38.304Z,18.19
2023-05-23T17:28:42.002Z,18.18
2023-05-23T17:33:44.341Z,18.30
2023-05-23T17:38:46.050Z,18.48
2023-05-23T17:43:49.811Z,18.59
2023-05-23T17:48:51.519Z,18.24
2023-05-23T17:53:53.763Z,18.17
2023-05-23T17:58:57.107Z,18.05
2023-05-23T18:03:58.833Z,18.11
2023-05-23T18:09:00.559Z,17.88
2023-05-23T18:14:03.835Z,17.95
2023-05-23T18:19:05.805Z,17.54
2023-05-23T18:24:08.914Z,17.33
2023-05-23T18:29:12.015Z,17.31
2023-05-23T18:34:13.730Z,17.06
2023-05-23T18:39:15.574Z,16.90
2023-05-23T18:44:20.964Z,17.14
2023-05-23T18:49:23.011Z,17.11
2023-05-23T18:54:24.707Z,17.11
2023-05-23T18:59:27.781Z,17.03
2023-05-23T19:04:29.511Z,16.93
2023-05-23T19:09:31.248Z,16.71
2023-05-23T19:14:34.378Z,16.39
2023-05-23T19:19:37.470Z,16.15
2023-05-23T19:24:39.324Z,15.94
2023-05-23T19:29:42.478Z,15.87
2023-05-23T19:34:44.366Z,15.97
2023-05-23T19:39:46.232Z,15.62
2023-05-23T19:44:50.081Z,15.40
2023-05-23T19:49:51.775Z,15.26
2023-05-23T19:54:53.501Z,15.16
2023-05-23T19:59:56.712Z,15.12
2023-05-23T20:04:58.408Z,15.22
2023-05-23T20:10:00.184Z,15.29
2023-05-23T20:15:03.572Z,15.11
2023-05-23T20:20:06.646Z,15.26
2023-05-23T20:25:08.806Z,15.26
2023-05-23T20:30:13.215Z,14.97
2023-05-23T20:35:14.962Z,15.01
2023-05-23T20:40:17.021Z,15.24
2023-05-23T20:45:20.173Z,15.27
2023-05-23T20:50:22.564Z,15.39
2023-05-23T20:55:24.802Z,15.45
2023-05-23T21:00:28.348Z,15.34
2023-05-23T21:05:30.174Z,15.38
2023-05-23T21:10:32.037Z,15.39
2023-05-23T21:15:35.188Z,15.44
2023-05-23T21:20:36.892Z,15.41
2023-05-23T21:25:38.729Z,15.39
2023-05-23T21:30:42.138Z,15.16
2023-05-23T21:35:45.184Z,14.80
2023-05-23T21:40:46.977Z,14.76
2023-05-23T21:45:50.197Z,14.44
2023-05-23T21:50:51.900Z,14.51
2023-05-23T21:55:53.678Z,14.60
2023-05-23T22:00:56.857Z,14.66
2023-05-23T22:05:58.562Z,14.73
2023-05-23T22:11:00.898Z,14.83
2023-05-23T22:16:05.322Z,14.70
2023-05-23T22:21:07.104Z,14.80
2023-05-23T22:26:08.791Z,14.83
2023-05-23T22:31:13.448Z,14.92
2023-05-23T22:36:15.176Z,14.68
2023-05-23T22:41:17.108Z,14.40
2023-05-23T22:46:20.203Z,14.49
2023-05-23T22:51:22.237Z,14.45
2023-05-23T22:56:24.053Z,14.60
2023-05-23T23:01:27.108Z,14.39
2023-05-23T23:06:29.246Z,14.50
2023-05-23T23:11:31.045Z,14.61
2023-05-23T23:16:34.560Z,14.36
2023-05-23T23:21:37.568Z,14.36
2023-05-23T23:26:39.329Z,14.40
2023-05-23T23:31:42.434Z,14.38
2023-05-23T23:36:44.197Z,14.31
2023-05-23T23:41:45.906Z,14.46
2023-05-23T23:46:49.168Z,14.31
2023-05-23T23:51:50.998Z,14.23
2023-05-23T23:56:52.700Z,14.25
